createdAt,value
2018-07-23T00:01:27.631Z,20.61
2018-07-23T00:03:56.607Z,20.57
2018-07-23T00:06:25.193Z,20.55
2018-07-23T00:08:53.787Z,20.53
2018-07-23T00:11:22.719Z,20.55
2018-07-23T00:13:51.308Z,20.55
2018-07-23T00:16:19.864Z,20.55
2018-07-23T00:18:48.457Z,20.51
2018-07-23T00:21:17.038Z,20.50
2018-07-23T00:23:45.622Z,20.45
2018-07-23T00:26:14.553Z,20.49
2018-07-23T00:28:43.119Z,20.44
2018-07-23T00:31:11.704Z,20.39
2018-07-23T00:33:40.423Z,20.41
2018-07-23T00:36:09.007Z,20.44
2018-07-23T00:38:37.572Z,20.41
2018-07-23T00:41:06.432Z,20.27
2018-07-23T00:43:35.256Z,20.24
2018-07-23T00:46:03.889Z,20.23
2018-07-23T00:48:32.606Z,20.20
2018-07-23T00:51:01.188Z,19.99
2018-07-23T00:53:29.724Z,20.08
2018-07-23T00:55:58.723Z,20.03
2018-07-23T00:58:27.551Z,20.08
2018-07-23T01:00:56.119Z,20.06
2018-07-23T01:03:24.847Z,20.09
2018-07-23T01:05:53.424Z,20.05
2018-07-23T01:08:21.999Z,20.10
2018-07-23T01:10:51.202Z,20.09
2018-07-23T01:13:20.235Z,20.08
2018-07-23T01:15:48.787Z,20.09
2018-07-23T01:18:17.357Z,20.10
2018-07-23T01:20:45.935Z,20.10
2018-07-23T01:23:14.491Z,20.09
2018-07-23T01:25:43.405Z,20.10
2018-07-23T01:28:11.984Z,20.05
2018-07-23T01:30:40.629Z,20.10
2018-07-23T01:33:09.528Z,20.02
2018-07-23T01:35:38.357Z,20.04
2018-07-23T01:38:07.117Z,20.04
2018-07-23T01:40:35.801Z,19.97
2018-07-23T01:43:04.379Z,19.98
2018-07-23T01:45:32.952Z,19.96
2018-07-23T01:48:01.638Z,19.94
2018-07-23T01:50:30.480Z,19.96
2018-07-23T01:52:59.013Z,20.02
2018-07-23T01:55:27.740Z,19.99
2018-07-23T01:57:56.328Z,19.91
2018-07-23T02:00:24.890Z,19.91
2018-07-23T02:02:53.903Z,19.95
2018-07-23T02:05:22.491Z,20.08
2018-07-23T02:07:51.080Z,20.00
2018-07-23T02:10:19.764Z,19.97
2018-07-23T02:12:48.339Z,19.96
2018-07-23T02:15:16.871Z,19.96
2018-07-23T02:17:45.583Z,19.94
2018-07-23T02:20:14.135Z,19.96
2018-07-23T02:22:42.724Z,19.92
2018-07-23T02:25:11.445Z,20.03
2018-07-23T02:27:40.009Z,20.04
2018-07-23T02:30:08.609Z,19.95
2018-07-23T02:32:37.327Z,20.04
2018-07-23T02:35:06.204Z,20.10
2018-07-23T02:37:34.772Z,20.02
2018-07-23T02:40:03.496Z,19.99
2018-07-23T02:42:32.048Z,19.95
2018-07-23T02:45:00.765Z,20.01
2018-07-23T02:47:29.399Z,19.96
2018-07-23T02:49:57.959Z,20.05
2018-07-23T02:52:29.569Z,20.01
2018-07-23T02:54:58.232Z,20.12
2018-07-23T02:57:26.784Z,20.08
2018-07-23T02:59:55.788Z,20.06
2018-07-23T03:02:25.084Z,19.97
2018-07-23T03:04:53.620Z,19.90
2018-07-23T03:07:22.304Z,19.88
2018-07-23T03:09:50.848Z,19.83
2018-07-23T03:12:19.387Z,19.51
2018-07-23T03:14:48.107Z,19.56
2018-07-23T03:17:16.663Z,19.59
2018-07-23T03:19:45.225Z,19.64
2018-07-23T03:22:13.881Z,19.77
2018-07-23T03:24:42.432Z,19.80
2018-07-23T03:27:10.973Z,19.85
2018-07-23T03:29:39.560Z,19.85
2018-07-23T03:32:08.169Z,19.87
2018-07-23T03:34:36.835Z,19.94
2018-07-23T03:37:05.411Z,20.00
2018-07-23T03:39:33.991Z,20.02
2018-07-23T03:42:02.599Z,19.90
2018-07-23T03:44:31.176Z,19.98
2018-07-23T03:46:59.838Z,20.00
2018-07-23T03:49:28.407Z,20.04
2018-07-23T03:51:57.300Z,20.01
2018-07-23T03:54:25.872Z,20.00
2018-07-23T03:56:54.464Z,19.95
2018-07-23T03:59:23.068Z,19.97
2018-07-23T04:01:51.656Z,19.92
2018-07-23T04:04:20.236Z,20.03
2018-07-23T04:06:49.556Z,19.98
2018-07-23T04:09:18.162Z,19.97
2018-07-23T04:11:46.772Z,19.99
2018-07-23T04:14:15.732Z,19.88
2018-07-23T04:16:44.318Z,19.96
2018-07-23T04:19:12.913Z,19.91
2018-07-23T04:21:41.495Z,19.77
2018-07-23T04:24:10.032Z,19.83
2018-07-23T04:26:38.579Z,19.93
2018-07-23T04:29:07.204Z,19.95
2018-07-23T04:31:35.851Z,20.04
2018-07-23T04:34:04.460Z,20.05
2018-07-23T04:36:33.139Z,19.99
2018-07-23T04:39:01.704Z,20.03
2018-07-23T04:41:30.275Z,20.19
2018-07-23T04:43:58.955Z,20.28
2018-07-23T04:46:27.520Z,20.30
2018-07-23T04:48:56.195Z,20.41
2018-07-23T04:51:25.056Z,20.39
2018-07-23T04:53:53.621Z,20.50
2018-07-23T04:56:22.159Z,20.55
2018-07-23T04:58:50.807Z,20.55
2018-07-23T05:01:19.360Z,20.52
2018-07-23T05:03:47.928Z,20.59
2018-07-23T05:06:16.803Z,20.62
2018-07-23T05:08:45.430Z,20.62
2018-07-23T05:11:13.987Z,20.62
2018-07-23T05:13:42.700Z,20.73
2018-07-23T05:16:11.262Z,20.75
2018-07-23T05:18:39.825Z,20.72
2018-07-23T05:21:08.778Z,20.76
2018-07-23T05:23:37.428Z,20.86
2018-07-23T05:26:06.380Z,20.85
2018-07-23T05:28:34.988Z,21.01
2018-07-23T05:31:03.535Z,21.10
2018-07-23T05:33:32.108Z,21.17
2018-07-23T05:36:00.796Z,21.17
2018-07-23T05:38:29.433Z,21.22
2018-07-23T05:40:58.004Z,21.31
2018-07-23T05:43:26.640Z,21.33
2018-07-23T05:45:55.237Z,21.34
2018-07-23T05:48:24.337Z,21.38
2018-07-23T05:50:53.079Z,21.40
2018-07-23T05:53:21.631Z,21.19
2018-07-23T05:55:50.175Z,21.25
2018-07-23T05:58:19.084Z,21.39
2018-07-23T06:00:48.583Z,21.45
2018-07-23T06:03:17.189Z,21.56
2018-07-23T06:05:45.824Z,21.68
2018-07-23T06:08:14.391Z,21.66
2018-07-23T06:10:43.778Z,21.70
2018-07-23T06:13:12.577Z,21.78
2018-07-23T06:15:41.131Z,21.91
2018-07-23T06:18:09.819Z,22.06
2018-07-23T06:20:38.794Z,22.30
2018-07-23T06:23:08.825Z,22.48
2018-07-23T06:25:39.745Z,22.66
2018-07-23T06:28:09.668Z,22.78
2018-07-23T06:30:39.509Z,22.88
2018-07-23T06:33:09.360Z,22.89
2018-07-23T06:35:39.351Z,22.86
2018-07-23T06:38:08.640Z,23.17
2018-07-23T06:40:38.045Z,23.36
2018-07-23T06:43:07.203Z,23.65
2018-07-23T06:45:35.892Z,24.00
2018-07-23T06:48:04.608Z,24.02
2018-07-23T06:50:34.596Z,24.02
2018-07-23T06:53:05.223Z,24.29
2018-07-23T06:55:34.968Z,24.25
2018-07-23T06:58:05.061Z,24.53
2018-07-23T07:00:34.101Z,24.80
2018-07-23T07:03:08.396Z,24.95
2018-07-23T07:05:38.357Z,25.06
2018-07-23T07:08:07.468Z,25.18
2018-07-23T07:10:36.951Z,25.33
2018-07-23T07:13:09.334Z,25.60
2018-07-23T07:15:41.084Z,26.09
2018-07-23T07:18:11.064Z,25.88
2018-07-23T07:20:39.934Z,25.75
2018-07-23T07:23:08.597Z,25.68
2018-07-23T07:25:37.156Z,25.09
2018-07-23T07:28:07.096Z,25.80
2018-07-23T07:30:35.872Z,26.04
2018-07-23T07:33:07.240Z,26.16
2018-07-23T07:35:37.195Z,26.48
2018-07-23T07:38:05.851Z,26.46
2018-07-23T07:40:34.423Z,26.58
2018-07-23T07:43:03.147Z,27.03
2018-07-23T07:45:33.633Z,27.47
2018-07-23T07:48:02.370Z,27.88
2018-07-23T07:50:30.960Z,28.12
2018-07-23T07:52:59.529Z,28.29
2018-07-23T07:55:28.382Z,28.53
2018-07-23T07:57:57.096Z,29.03
2018-07-23T08:00:27.868Z,29.59
2018-07-23T08:02:58.488Z,30.17
2018-07-23T08:05:27.203Z,30.91
2018-07-23T08:07:55.835Z,30.38
2018-07-23T08:10:24.399Z,30.56
2018-07-23T08:12:53.200Z,30.45
2018-07-23T08:15:24.251Z,30.61
2018-07-23T08:17:52.960Z,30.95
2018-07-23T08:20:21.576Z,31.61
2018-07-23T08:22:51.257Z,31.40
2018-07-23T08:25:19.835Z,31.26
2018-07-23T08:27:50.494Z,31.86
2018-07-23T08:30:19.216Z,32.19
2018-07-23T08:32:47.804Z,32.17
2018-07-23T08:35:17.500Z,31.52
2018-07-23T08:37:47.700Z,31.50
2018-07-23T08:40:16.245Z,31.20
2018-07-23T08:42:45.068Z,30.66
2018-07-23T08:45:13.812Z,30.78
2018-07-23T08:47:42.373Z,31.05
2018-07-23T08:50:12.730Z,30.73
2018-07-23T08:52:43.708Z,31.21
2018-07-23T08:55:12.408Z,31.77
2018-07-23T08:57:41.028Z,31.79
2018-07-23T09:00:10.236Z,29.93
2018-07-23T09:02:46.097Z,30.56
2018-07-23T09:05:15.163Z,31.78
2018-07-23T09:07:51.288Z,32.09
2018-07-23T09:10:25.648Z,31.47
2018-07-23T09:12:57.013Z,31.57
2018-07-23T09:15:26.088Z,32.07
2018-07-23T09:17:55.196Z,32.59
2018-07-23T09:20:25.587Z,33.13
2018-07-23T09:22:54.143Z,33.25
2018-07-23T09:25:22.835Z,33.84
2018-07-23T09:27:51.557Z,34.65
2018-07-23T09:30:55.972Z,34.92
2018-07-23T09:33:25.428Z,35.84
2018-07-23T09:35:54.591Z,35.77
2018-07-23T09:38:23.698Z,36.18
2018-07-23T09:40:52.999Z,36.93
2018-07-23T09:43:21.597Z,36.82
2018-07-23T09:45:50.127Z,35.57
2018-07-23T09:48:18.835Z,35.54
2018-07-23T09:50:48.276Z,34.64
2018-07-23T09:53:17.074Z,34.80
2018-07-23T09:55:45.741Z,34.23
2018-07-23T09:58:14.307Z,34.51
2018-07-23T10:00:48.379Z,34.54
2018-07-23T10:03:17.950Z,34.38
2018-07-23T10:05:46.403Z,34.25
2018-07-23T10:08:15.018Z,33.39
2018-07-23T10:10:43.583Z,32.74
2018-07-23T10:13:12.155Z,31.99
2018-07-23T10:15:40.863Z,33.73
2018-07-23T10:18:09.472Z,34.81
2018-07-23T10:20:38.074Z,36.34
2018-07-23T10:23:06.791Z,37.69
2018-07-23T10:25:35.488Z,38.12
2018-07-23T10:28:04.079Z,37.60
2018-07-23T10:30:32.999Z,38.47
2018-07-23T10:33:01.580Z,39.19
2018-07-23T10:35:30.133Z,40.30
2018-07-23T10:37:58.883Z,39.28
2018-07-23T10:40:27.427Z,37.74
2018-07-23T10:42:55.973Z,37.38
2018-07-23T10:45:24.876Z,38.32
2018-07-23T10:47:58.669Z,39.09
2018-07-23T10:50:27.399Z,39.49
2018-07-23T10:52:56.085Z,40.09
2018-07-23T10:55:24.647Z,40.55
2018-07-23T10:57:53.377Z,41.35
2018-07-23T11:00:21.968Z,41.19
2018-07-23T11:02:50.567Z,40.29
2018-07-23T11:05:19.316Z,40.50
2018-07-23T11:07:48.008Z,41.44
2018-07-23T11:10:16.635Z,41.87
2018-07-23T11:12:45.483Z,42.46
2018-07-23T11:15:14.096Z,42.37
2018-07-23T11:17:42.682Z,43.12
2018-07-23T11:20:12.476Z,44.03
2018-07-23T11:22:41.736Z,43.50
2018-07-23T11:25:38.810Z,44.24
2018-07-23T11:27:38.988Z,44.06
2018-07-23T11:30:07.895Z,44.41
2018-07-23T11:32:36.899Z,44.72
2018-07-23T11:35:05.712Z,42.28
2018-07-23T11:37:34.506Z,41.03
2018-07-23T11:40:03.075Z,41.17
2018-07-23T11:42:31.969Z,41.73
2018-07-23T11:45:00.640Z,43.04
2018-07-23T11:47:29.303Z,43.64
2018-07-23T11:49:58.036Z,44.39
2018-07-23T11:52:26.635Z,44.58
2018-07-23T11:54:55.184Z,44.38
2018-07-23T11:57:23.760Z,44.40
2018-07-23T11:59:52.335Z,43.84
2018-07-23T12:02:20.988Z,44.91
2018-07-23T12:04:49.684Z,44.83
2018-07-23T12:07:18.236Z,45.64
2018-07-23T12:09:46.917Z,46.47
2018-07-23T12:12:15.514Z,46.01
2018-07-23T12:14:44.060Z,43.92
2018-07-23T12:17:12.767Z,43.20
2018-07-23T12:19:41.438Z,41.48
2018-07-23T12:22:10.005Z,40.90
2018-07-23T12:24:38.576Z,40.46
2018-07-23T12:27:07.195Z,40.65
2018-07-23T12:29:35.747Z,40.34
2018-07-23T12:32:04.300Z,41.17
2018-07-23T12:34:33.040Z,41.67
2018-07-23T12:37:01.589Z,44.15
2018-07-23T12:39:30.239Z,43.90
2018-07-23T12:41:58.923Z,44.23
2018-07-23T12:44:27.456Z,44.31
2018-07-23T12:46:56.108Z,44.29
2018-07-23T12:49:24.693Z,45.68
2018-07-23T12:51:53.226Z,45.58
2018-07-23T12:54:22.144Z,43.68
2018-07-23T12:56:50.832Z,43.03
2018-07-23T12:59:19.524Z,42.34
2018-07-23T13:01:48.083Z,41.18
2018-07-23T13:04:16.794Z,41.87
2018-07-23T13:06:45.464Z,43.19
2018-07-23T13:09:14.141Z,42.93
2018-07-23T13:11:42.728Z,42.50
2018-07-23T13:14:11.279Z,41.55
2018-07-23T13:16:39.815Z,41.72
2018-07-23T13:19:08.504Z,40.74
2018-07-23T13:21:37.077Z,39.42
2018-07-23T13:24:05.864Z,37.79
2018-07-23T13:26:34.792Z,37.57
2018-07-23T13:29:03.506Z,39.41
2018-07-23T13:31:32.269Z,40.34
2018-07-23T13:34:00.878Z,41.31
2018-07-23T13:36:29.439Z,42.49
2018-07-23T13:38:58.007Z,41.18
2018-07-23T13:41:26.761Z,41.28
2018-07-23T13:43:55.337Z,40.41
2018-07-23T13:46:23.942Z,41.07
2018-07-23T13:48:52.520Z,40.97
2018-07-23T13:51:21.055Z,40.79
2018-07-23T13:53:49.615Z,41.01
2018-07-23T13:56:18.200Z,39.87
2018-07-23T13:58:46.761Z,38.76
2018-07-23T14:01:15.354Z,38.73
2018-07-23T14:03:43.937Z,39.51
2018-07-23T14:06:12.623Z,39.87
2018-07-23T14:08:41.188Z,41.27
2018-07-23T14:11:09.819Z,41.85
2018-07-23T14:13:38.380Z,40.98
2018-07-23T14:16:06.978Z,40.73
2018-07-23T14:18:35.584Z,39.90
2018-07-23T14:21:04.176Z,40.21
2018-07-23T14:23:32.943Z,41.46
2018-07-23T14:26:01.664Z,40.49
2018-07-23T14:28:30.254Z,39.68
2018-07-23T14:30:58.805Z,37.31
2018-07-23T14:33:27.387Z,35.88
2018-07-23T14:35:55.976Z,35.35
2018-07-23T14:38:24.755Z,34.84
2018-07-23T14:40:53.465Z,35.06
2018-07-23T14:43:22.057Z,35.88
2018-07-23T14:45:51.089Z,35.93
2018-07-23T14:48:20.151Z,35.13
2018-07-23T14:50:48.708Z,34.92
2018-07-23T14:53:17.295Z,34.67
2018-07-23T14:55:46.237Z,33.33
2018-07-23T14:58:14.780Z,33.37
2018-07-23T15:00:43.371Z,33.44
2018-07-23T15:24:11.752Z,33.49
2018-07-23T15:26:40.457Z,33.24
2018-07-23T15:29:09.260Z,32.97
2018-07-23T15:31:38.223Z,32.82
2018-07-23T15:34:07.363Z,32.61
2018-07-23T15:36:36.308Z,32.53
2018-07-23T15:39:07.739Z,32.22
2018-07-23T15:41:36.816Z,32.17
2018-07-23T15:44:05.739Z,32.01
2018-07-23T15:46:34.539Z,31.86
2018-07-23T15:49:04.031Z,31.92
2018-07-23T15:51:32.633Z,31.79
2018-07-23T15:54:01.508Z,31.72
2018-07-23T15:56:30.144Z,31.52
2018-07-23T15:58:59.068Z,31.24
2018-07-23T16:01:27.823Z,30.97
2018-07-23T16:03:56.507Z,30.89
2018-07-23T16:06:25.543Z,30.78
2018-07-23T16:08:54.434Z,30.58
2018-07-23T16:11:23.308Z,30.35
2018-07-23T16:13:52.340Z,30.26
2018-07-23T16:16:21.159Z,30.16
2018-07-23T16:18:50.229Z,30.13
2018-07-23T16:21:18.852Z,29.89
2018-07-23T16:23:47.857Z,29.96
2018-07-23T16:26:16.883Z,29.85
2018-07-23T16:28:45.615Z,29.49
2018-07-23T16:31:14.479Z,29.63
2018-07-23T16:33:43.125Z,29.73
2018-07-23T16:36:11.940Z,29.83
2018-07-23T16:38:41.135Z,29.49
2018-07-23T16:41:09.787Z,29.79
2018-07-23T16:43:39.203Z,30.02
2018-07-23T16:46:08.844Z,30.06
2018-07-23T16:48:37.519Z,30.11
2018-07-23T16:51:06.972Z,30.03
2018-07-23T16:53:35.716Z,29.97
2018-07-23T16:56:05.125Z,30.00
2018-07-23T16:58:35.076Z,30.02
2018-07-23T17:01:03.747Z,30.01
2018-07-23T17:03:32.342Z,30.02
2018-07-23T17:06:00.979Z,30.00
2018-07-23T17:08:29.717Z,29.78
2018-07-23T17:10:58.603Z,29.68
2018-07-23T17:13:27.745Z,29.64
2018-07-23T17:15:56.610Z,29.46
2018-07-23T17:18:25.546Z,29.55
2018-07-23T17:20:54.323Z,29.59
2018-07-23T17:23:23.072Z,29.54
2018-07-23T17:25:51.641Z,29.42
2018-07-23T17:28:20.291Z,29.41
2018-07-23T17:30:49.195Z,29.36
2018-07-23T17:33:17.868Z,29.30
2018-07-23T17:35:46.783Z,29.29
2018-07-23T17:38:15.952Z,29.21
2018-07-23T17:40:44.705Z,29.15
2018-07-23T17:43:13.477Z,29.10
2018-07-23T17:45:42.679Z,28.92
2018-07-23T17:48:11.535Z,28.92
2018-07-23T17:50:40.172Z,28.84
2018-07-23T17:53:08.784Z,28.78
2018-07-23T17:55:37.739Z,28.71
2018-07-23T17:58:06.928Z,28.71
2018-07-23T18:00:35.564Z,28.69
2018-07-23T18:03:04.444Z,28.68
2018-07-23T18:05:33.265Z,28.60
2018-07-23T18:08:01.816Z,28.51
2018-07-23T18:10:31.017Z,28.42
2018-07-23T18:12:59.793Z,28.20
2018-07-23T18:15:28.429Z,28.25
2018-07-23T18:17:57.117Z,28.13
2018-07-23T18:20:25.719Z,28.10
2018-07-23T18:22:54.720Z,27.96
2018-07-23T18:25:23.440Z,27.82
2018-07-23T18:27:52.161Z,27.69
2018-07-23T18:30:21.431Z,27.69
2018-07-23T18:32:50.048Z,27.60
2018-07-23T18:35:18.904Z,27.55
2018-07-23T18:37:47.594Z,27.42
2018-07-23T18:40:16.890Z,27.31
2018-07-23T18:42:46.572Z,27.15
2018-07-23T18:45:15.567Z,27.07
2018-07-23T18:47:44.725Z,26.98
2018-07-23T18:50:13.959Z,26.83
2018-07-23T18:52:42.772Z,26.67
2018-07-23T18:55:11.736Z,26.61
2018-07-23T18:57:40.416Z,26.53
2018-07-23T19:00:09.925Z,26.38
2018-07-23T19:02:39.152Z,26.34
2018-07-23T19:05:08.312Z,26.27
2018-07-23T19:07:38.343Z,26.18
2018-07-23T19:10:10.159Z,26.09
2018-07-23T19:12:39.319Z,26.00
2018-07-23T19:15:08.541Z,25.93
2018-07-23T19:17:38.407Z,25.84
2018-07-23T19:20:07.305Z,25.76
2018-07-23T19:22:36.115Z,25.67
2018-07-23T19:25:05.628Z,25.60
2018-07-23T19:27:34.590Z,25.53
2018-07-23T19:30:03.655Z,25.44
2018-07-23T19:32:32.900Z,25.37
2018-07-23T19:35:03.545Z,25.29
2018-07-23T19:37:32.178Z,25.20
2018-07-23T19:40:00.992Z,25.14
2018-07-23T19:42:29.701Z,25.10
2018-07-23T19:44:58.895Z,25.07
2018-07-23T19:47:28.100Z,25.00
2018-07-23T19:49:56.980Z,24.93
2018-07-23T19:52:26.036Z,24.88
2018-07-23T19:54:54.731Z,24.83
2018-07-23T19:57:23.607Z,24.78
2018-07-23T19:59:53.443Z,24.76
2018-07-23T20:02:22.707Z,24.76
2018-07-23T20:04:52.564Z,24.68
2018-07-23T20:07:22.540Z,24.58
2018-07-23T20:09:52.924Z,24.51
2018-07-23T20:12:23.024Z,24.45
2018-07-23T20:14:52.800Z,24.41
2018-07-23T20:17:22.382Z,24.38
2018-07-23T20:19:52.677Z,24.33
2018-07-23T20:22:21.808Z,24.31
2018-07-23T20:24:50.477Z,24.27
2018-07-23T20:27:19.751Z,24.24
2018-07-23T20:29:48.474Z,24.13
2018-07-23T20:32:17.144Z,24.02
2018-07-23T20:34:46.004Z,23.99
2018-07-23T20:37:14.648Z,24.03
2018-07-23T20:39:43.570Z,24.01
2018-07-23T20:42:12.693Z,23.94
2018-07-23T20:44:41.938Z,23.88
2018-07-23T20:47:10.496Z,23.82
2018-07-23T20:49:39.360Z,23.75
2018-07-23T20:52:08.008Z,23.67
2018-07-23T20:54:37.040Z,23.62
2018-07-23T20:57:06.569Z,23.53
2018-07-23T20:59:35.308Z,23.47
2018-07-23T21:02:04.407Z,23.43
2018-07-23T21:04:33.211Z,23.37
2018-07-23T21:07:01.855Z,23.37
2018-07-23T21:09:31.560Z,23.32
2018-07-23T21:12:00.178Z,23.16
2018-07-23T21:14:28.904Z,23.21
2018-07-23T21:16:57.579Z,23.24
2018-07-23T21:19:26.565Z,23.19
2018-07-23T21:21:55.428Z,23.02
2018-07-23T21:24:24.098Z,22.79
2018-07-23T21:26:53.204Z,22.94
2018-07-23T21:29:22.212Z,22.83
2018-07-23T21:31:51.027Z,22.82
2018-07-23T21:34:19.869Z,22.71
2018-07-23T21:36:48.548Z,22.75
2018-07-23T21:39:17.139Z,22.69
2018-07-23T21:41:46.075Z,22.50
2018-07-23T21:44:15.548Z,22.49
2018-07-23T21:46:44.216Z,22.45
2018-07-23T21:49:13.255Z,22.38
2018-07-23T21:51:42.043Z,22.28
2018-07-23T21:54:10.890Z,22.16
2018-07-23T21:56:39.703Z,22.13
2018-07-23T21:59:08.424Z,22.09
2018-07-23T22:01:37.119Z,21.98
2018-07-23T22:04:05.860Z,21.91
2018-07-23T22:06:34.511Z,21.85
2018-07-23T22:09:03.704Z,21.62
2018-07-23T22:11:32.469Z,21.57
2018-07-23T22:14:01.080Z,21.54
2018-07-23T22:16:29.894Z,21.56
2018-07-23T22:18:58.659Z,21.46
2018-07-23T22:21:27.324Z,21.38
2018-07-23T22:23:56.268Z,21.38
2018-07-23T22:26:25.412Z,21.31
2018-07-23T22:28:54.161Z,21.34
2018-07-23T22:31:22.942Z,21.34
2018-07-23T22:33:51.815Z,21.26
2018-07-23T22:36:20.544Z,21.21
2018-07-23T22:38:49.600Z,21.16
2018-07-23T22:41:18.320Z,21.12
2018-07-23T22:43:46.935Z,21.11
2018-07-23T22:46:15.533Z,21.06
2018-07-23T22:48:44.263Z,20.99
2018-07-23T22:51:13.211Z,21.00
2018-07-23T22:53:41.956Z,20.99
2018-07-23T22:56:10.696Z,20.95
2018-07-23T22:58:39.704Z,20.92
2018-07-23T23:01:08.399Z,20.96
2018-07-23T23:03:37.079Z,20.89
2018-07-23T23:06:05.748Z,20.78
2018-07-23T23:08:34.584Z,20.77
2018-07-23T23:11:03.343Z,20.68
2018-07-23T23:13:32.763Z,20.68
2018-07-23T23:16:01.398Z,20.70
2018-07-23T23:18:30.148Z,20.67
2018-07-23T23:20:58.902Z,20.66
2018-07-23T23:23:27.999Z,20.62
2018-07-23T23:25:57.288Z,20.57
2018-07-23T23:28:26.120Z,20.47
2018-07-23T23:30:54.883Z,20.41
2018-07-23T23:33:23.584Z,20.33
2018-07-23T23:35:52.491Z,20.34
2018-07-23T23:38:21.214Z,20.28
2018-07-23T23:40:49.939Z,20.17
2018-07-23T23:43:18.709Z,20.16
2018-07-23T23:45:47.438Z,20.15
2018-07-23T23:48:16.609Z,20.19
2018-07-23T23:50:45.568Z,20.21
2018-07-23T23:53:14.512Z,20.15
2018-07-23T23:55:43.600Z,20.12
2018-07-23T23:58:12.349Z,20.07
